createdAt,value
2022-12-06T00:00:32.403Z,18.8
2022-12-06T00:01:48.708Z,18.3
2022-12-06T00:03:04.992Z,21.3
2022-12-06T00:04:21.301Z,21
2022-12-06T00:05:37.578Z,21.2
2022-12-06T00:06:53.883Z,19
2022-12-06T00:08:10.168Z,20.9
2022-12-06T00:09:26.464Z,19.9
2022-12-06T00:10:42.771Z,19.7
2022-12-06T00:11:59.064Z,18.6
2022-12-06T00:13:15.346Z,19.4
2022-12-06T00:14:31.637Z,19
2022-12-06T00:15:47.935Z,20.3
2022-12-06T00:17:03.254Z,18.1
2022-12-06T00:18:19.548Z,19.2
2022-12-06T00:19:35.837Z,18.6
2022-12-06T00:20:52.132Z,18
2022-12-06T00:22:08.429Z,18.4
2022-12-06T00:23:24.718Z,18.6
2022-12-06T00:24:41.011Z,18.3
2022-12-06T00:25:57.311Z,19.8
2022-12-06T00:27:13.604Z,21.7
2022-12-06T00:28:29.909Z,19.6
2022-12-06T00:29:46.194Z,18.9
2022-12-06T00:31:02.493Z,18.3
2022-12-06T00:32:18.782Z,18.5
2022-12-06T00:33:34.089Z,17.6
2022-12-06T00:34:50.389Z,17.9
2022-12-06T00:36:06.676Z,17.2
2022-12-06T00:37:22.973Z,17.7
2022-12-06T00:38:39.272Z,17.7
2022-12-06T00:39:55.570Z,18.2
2022-12-06T00:41:11.862Z,18
2022-12-06T00:42:28.159Z,17.8
2022-12-06T00:43:44.439Z,18.7
2022-12-06T00:45:00.753Z,18.7
2022-12-06T00:46:17.030Z,19
2022-12-06T00:47:33.327Z,16.3
2022-12-06T00:48:49.630Z,18.9
2022-12-06T00:50:04.938Z,18.4
2022-12-06T00:51:21.228Z,17.8
2022-12-06T00:52:37.529Z,17.7
2022-12-06T00:53:53.825Z,20.1
2022-12-06T00:55:10.120Z,19.5
2022-12-06T00:56:26.408Z,18.1
2022-12-06T00:57:42.708Z,19.6
2022-12-06T00:58:58.996Z,17.2
2022-12-06T01:00:15.283Z,19.6
2022-12-06T01:01:31.578Z,15.2
2022-12-06T01:02:47.876Z,17.5
2022-12-06T01:04:04.170Z,18.4
2022-12-06T01:05:20.463Z,17.9
2022-12-06T01:06:35.782Z,17.2
2022-12-06T01:07:52.077Z,17.9
2022-12-06T01:09:08.374Z,17.9
2022-12-06T01:10:24.659Z,18.1
2022-12-06T01:11:40.959Z,19.1
2022-12-06T01:12:57.247Z,18.4
2022-12-06T01:14:12.569Z,16.8
2022-12-06T01:15:28.863Z,16.6
2022-12-06T01:16:45.168Z,18.4
2022-12-06T01:18:01.457Z,15.2
2022-12-06T01:19:17.754Z,16
2022-12-06T01:20:34.032Z,17.5
2022-12-06T01:21:50.327Z,16.7
2022-12-06T01:23:06.630Z,16.2
2022-12-06T01:24:22.932Z,18
2022-12-06T01:25:39.226Z,15.1
2022-12-06T01:26:55.511Z,16.1
2022-12-06T01:28:11.818Z,14.7
2022-12-06T01:29:28.107Z,15.6
2022-12-06T01:30:43.408Z,14.6
2022-12-06T01:31:59.704Z,15.1
2022-12-06T01:33:16.006Z,15.6
2022-12-06T01:34:32.311Z,15.9
2022-12-06T01:35:48.583Z,17.2
2022-12-06T01:37:04.890Z,15.2
2022-12-06T01:38:21.186Z,15.8
2022-12-06T01:39:37.481Z,15.9
2022-12-06T01:40:53.766Z,16.7
2022-12-06T01:42:10.076Z,15.3
2022-12-06T01:43:26.354Z,14.1
2022-12-06T01:44:42.648Z,16.6
2022-12-06T01:45:58.956Z,15.9
2022-12-06T01:47:14.254Z,17.2
2022-12-06T01:48:30.545Z,15.7
2022-12-06T01:49:46.848Z,16.5
2022-12-06T01:51:03.142Z,17.8
2022-12-06T01:52:19.431Z,17.4
2022-12-06T01:53:35.719Z,16.9
2022-12-06T01:54:52.021Z,15.6
2022-12-06T01:56:08.312Z,15.2
2022-12-06T01:57:24.610Z,16.3
2022-12-06T01:58:40.915Z,14.3
2022-12-06T01:59:57.206Z,16.2
2022-12-06T02:01:13.495Z,16.6
2022-12-06T02:02:29.790Z,16.5
2022-12-06T02:05:01.395Z,16.2
2022-12-06T02:06:17.695Z,16.9
2022-12-06T02:07:33.991Z,17
2022-12-06T02:08:50.269Z,14.1
2022-12-06T02:10:06.571Z,16.2
2022-12-06T02:11:22.877Z,16.5
2022-12-06T02:12:39.156Z,14.3
2022-12-06T02:13:55.456Z,15.6
2022-12-06T02:15:11.746Z,15.1
2022-12-06T02:16:28.041Z,15.7
2022-12-06T02:17:44.331Z,17
2022-12-06T02:19:00.640Z,17.3
2022-12-06T02:20:15.949Z,14.8
2022-12-06T02:21:32.234Z,14.4
2022-12-06T02:22:48.533Z,16.2
2022-12-06T02:24:04.824Z,15.9
2022-12-06T02:25:21.118Z,15
2022-12-06T02:26:37.426Z,15.9
2022-12-06T02:27:53.702Z,15.7
2022-12-06T02:29:09.996Z,17.4
2022-12-06T02:30:26.300Z,15
2022-12-06T02:31:42.590Z,14.9
2022-12-06T02:32:58.894Z,13.7
2022-12-06T02:34:15.177Z,14.1
2022-12-06T02:35:31.478Z,15.8
2022-12-06T02:36:46.792Z,15.5
2022-12-06T02:38:03.081Z,15.7
2022-12-06T02:39:19.372Z,14.2
2022-12-06T02:40:35.673Z,14.9
2022-12-06T02:41:51.972Z,16.3
2022-12-06T02:43:08.260Z,16
2022-12-06T02:44:24.562Z,14.2
2022-12-06T02:45:40.849Z,14.9
2022-12-06T02:46:57.143Z,16.4
2022-12-06T02:48:13.441Z,15.8
2022-12-06T02:49:29.732Z,15
2022-12-06T02:50:46.025Z,13.9
2022-12-06T02:52:02.312Z,15.3
2022-12-06T02:53:17.626Z,14.3
2022-12-06T02:54:33.922Z,15.9
2022-12-06T02:55:50.221Z,13.9
2022-12-06T02:57:06.514Z,15.8
2022-12-06T02:58:22.817Z,15.3
2022-12-06T02:59:39.095Z,14.7
2022-12-06T03:00:55.404Z,14.7
2022-12-06T03:02:11.687Z,13.7
2022-12-06T03:03:27.994Z,13.8
2022-12-06T03:04:44.273Z,13.7
2022-12-06T03:06:00.586Z,15.4
2022-12-06T03:07:16.874Z,14
2022-12-06T03:08:33.173Z,15
2022-12-06T03:09:48.466Z,14.9
2022-12-06T03:11:04.762Z,15.4
2022-12-06T03:12:21.058Z,15
2022-12-06T03:13:37.359Z,14.6
2022-12-06T03:14:53.657Z,13.2
2022-12-06T03:16:09.955Z,13.8
2022-12-06T03:17:26.235Z,15.2
2022-12-06T03:18:42.533Z,13.2
2022-12-06T03:19:58.835Z,14.9
2022-12-06T03:21:15.136Z,15.8
2022-12-06T03:22:31.426Z,16.3
2022-12-06T03:23:47.712Z,13.6
2022-12-06T03:25:04.011Z,14.8
2022-12-06T03:26:19.316Z,14
2022-12-06T03:27:35.618Z,15.1
2022-12-06T03:28:51.917Z,15.2
2022-12-06T03:30:08.207Z,15.2
2022-12-06T03:31:24.506Z,15.1
2022-12-06T03:32:40.796Z,14.7
2022-12-06T03:33:57.083Z,14.8
2022-12-06T03:35:13.375Z,13.6
2022-12-06T03:36:29.685Z,14.4
2022-12-06T03:37:45.964Z,14.3
2022-12-06T03:39:02.262Z,16.3
2022-12-06T03:40:18.557Z,16
2022-12-06T03:41:34.853Z,16.6
2022-12-06T03:44:06.464Z,15
2022-12-06T03:45:22.753Z,15.8
2022-12-06T03:46:39.046Z,15.9
2022-12-06T03:47:55.341Z,16.3
2022-12-06T03:49:11.632Z,15.5
2022-12-06T03:50:27.929Z,16.9
2022-12-06T03:51:44.237Z,15
2022-12-06T03:53:00.523Z,15.3
2022-12-06T03:54:16.813Z,15.2
2022-12-06T03:55:33.104Z,15.2
2022-12-06T03:56:49.402Z,15.3
2022-12-06T03:58:05.701Z,14.3
2022-12-06T03:59:21.012Z,17.6
2022-12-06T04:00:37.307Z,16.3
2022-12-06T04:01:53.592Z,15.5
2022-12-06T04:03:09.894Z,14.7
2022-12-06T04:04:26.183Z,14.4
2022-12-06T04:05:42.474Z,14.9
2022-12-06T04:06:58.777Z,15.2
2022-12-06T04:08:15.071Z,14.5
2022-12-06T04:09:31.370Z,14
2022-12-06T04:10:47.676Z,16.4
2022-12-06T04:12:03.944Z,15.7
2022-12-06T04:13:20.250Z,15.5
2022-12-06T04:14:36.552Z,15.6
2022-12-06T04:15:51.852Z,15.2
2022-12-06T04:17:08.145Z,15.1
2022-12-06T04:18:24.442Z,15.6
2022-12-06T04:19:40.735Z,14.1
2022-12-06T04:20:57.022Z,15.3
2022-12-06T04:22:13.326Z,15.3
2022-12-06T04:23:29.625Z,16.5
2022-12-06T04:24:45.924Z,15.6
2022-12-06T04:26:02.202Z,15.3
2022-12-06T04:27:18.500Z,15.1
2022-12-06T04:28:34.800Z,16.4
2022-12-06T04:29:51.097Z,15.2
2022-12-06T04:31:07.384Z,13.8
2022-12-06T04:32:22.691Z,15.2
2022-12-06T04:33:39.003Z,14.6
2022-12-06T04:34:55.305Z,14.5
2022-12-06T04:36:11.586Z,16.5
2022-12-06T04:37:27.881Z,15.4
2022-12-06T04:38:44.172Z,15.3
2022-12-06T04:40:00.465Z,15.7
2022-12-06T04:41:16.748Z,16.7
2022-12-06T04:42:33.044Z,15.1
2022-12-06T04:43:49.000Z,16.6
2022-12-06T04:45:05.650Z,17.2
2022-12-06T04:46:21.930Z,15.8
2022-12-06T04:47:38.229Z,17.5
2022-12-06T04:48:53.543Z,16.8
2022-12-06T04:50:09.839Z,16.4
2022-12-06T04:51:26.135Z,15
2022-12-06T04:52:42.427Z,15.3
2022-12-06T04:53:58.728Z,17.4
2022-12-06T04:55:15.004Z,16.6
2022-12-06T04:56:31.308Z,17.9
2022-12-06T04:57:47.593Z,15.9
2022-12-06T04:59:03.899Z,17.4
2022-12-06T05:00:20.192Z,16.2
2022-12-06T05:01:36.493Z,15.8
2022-12-06T05:02:52.782Z,16.6
2022-12-06T05:04:09.073Z,17.6
2022-12-06T05:05:24.376Z,16
2022-12-06T05:06:40.680Z,17.7
2022-12-06T05:07:56.969Z,16.6
2022-12-06T05:09:13.274Z,16.7
2022-12-06T05:10:29.563Z,17.3
2022-12-06T05:11:45.849Z,15.2
2022-12-06T05:13:02.144Z,14.9
2022-12-06T05:14:18.440Z,14.1
2022-12-06T05:15:34.741Z,16
2022-12-06T05:16:51.024Z,15.2
2022-12-06T05:18:07.329Z,17.5
2022-12-06T05:19:23.630Z,16.2
2022-12-06T05:20:39.922Z,13.9
2022-12-06T05:21:55.225Z,14.5
2022-12-06T05:23:11.527Z,15.7
2022-12-06T05:25:44.119Z,17.1
2022-12-06T05:27:00.403Z,18.7
2022-12-06T05:28:16.707Z,17.8
2022-12-06T05:29:32.018Z,16.4
2022-12-06T05:30:48.318Z,17.9
2022-12-06T05:32:04.615Z,16.8
2022-12-06T05:33:20.901Z,16.9
2022-12-06T05:34:37.197Z,17.7
2022-12-06T05:35:53.484Z,19.5
2022-12-06T05:37:09.787Z,16.3
2022-12-06T05:38:26.083Z,17.3
2022-12-06T05:39:42.362Z,16.3
2022-12-06T05:40:58.683Z,17.8
2022-12-06T05:42:14.952Z,19.1
2022-12-06T05:43:31.254Z,16.9
2022-12-06T05:44:47.540Z,18.3
2022-12-06T05:46:02.853Z,17.7
2022-12-06T05:47:19.162Z,17.9
2022-12-06T05:48:35.458Z,17.5
2022-12-06T05:49:51.742Z,17.7
2022-12-06T05:51:08.034Z,16.8
2022-12-06T05:52:24.330Z,19.2
2022-12-06T05:53:40.636Z,16.3
2022-12-06T05:54:56.925Z,18.3
2022-12-06T05:56:13.215Z,15.8
2022-12-06T05:57:29.521Z,18.5
2022-12-06T05:58:45.800Z,18.2
2022-12-06T06:00:02.102Z,16.7
2022-12-06T06:01:18.391Z,17
2022-12-06T06:02:33.704Z,17.2
2022-12-06T06:03:50.004Z,17.7
2022-12-06T06:05:06.293Z,18.3
2022-12-06T06:06:22.584Z,17.2
2022-12-06T06:07:38.885Z,18.4
2022-12-06T06:08:55.183Z,17.4
2022-12-06T06:10:11.470Z,17
2022-12-06T06:11:27.765Z,16.3
2022-12-06T06:12:44.054Z,15.9
2022-12-06T06:14:00.360Z,18.8
2022-12-06T06:15:16.657Z,18.5
2022-12-06T06:16:32.951Z,16.3
2022-12-06T06:17:49.237Z,17.4
2022-12-06T06:19:04.549Z,17.3
2022-12-06T06:20:20.843Z,17.4
2022-12-06T06:21:37.129Z,16.7
2022-12-06T06:22:53.428Z,18.7
2022-12-06T06:24:09.736Z,19.1
2022-12-06T06:25:26.022Z,16.6
2022-12-06T06:26:42.318Z,17.3
2022-12-06T06:27:58.604Z,17.5
2022-12-06T06:29:14.853Z,16
2022-12-06T06:30:31.157Z,16.9
2022-12-06T06:31:47.405Z,17.2
2022-12-06T06:33:03.630Z,17.1
2022-12-06T06:34:19.932Z,16.8
2022-12-06T06:35:35.244Z,16.4
2022-12-06T06:36:51.501Z,17.2
2022-12-06T06:38:07.735Z,16.5
2022-12-06T06:39:23.983Z,15.2
2022-12-06T06:40:40.281Z,15.8
2022-12-06T06:41:56.534Z,15.9
2022-12-06T06:43:12.768Z,16.2
2022-12-06T06:44:29.030Z,16
2022-12-06T06:45:45.261Z,15.9
2022-12-06T06:47:01.506Z,16.8
2022-12-06T06:48:17.737Z,16.4
2022-12-06T06:49:33.973Z,15.9
2022-12-06T06:50:50.210Z,16.2
2022-12-06T06:52:05.488Z,16.3
2022-12-06T06:53:21.724Z,15.4
2022-12-06T06:54:37.954Z,15.4
2022-12-06T06:55:54.208Z,17.5
2022-12-06T06:57:10.430Z,19
2022-12-06T06:58:26.683Z,16.3
2022-12-06T06:59:42.923Z,17.8
2022-12-06T07:00:59.166Z,18.2
2022-12-06T07:02:15.408Z,19.7
2022-12-06T07:03:31.636Z,18.3
2022-12-06T07:04:47.881Z,16.5
2022-12-06T07:06:04.130Z,16.9
2022-12-06T07:07:20.364Z,19.1
2022-12-06T07:08:35.630Z,18.6
2022-12-06T07:09:51.865Z,16.4
2022-12-06T07:11:08.098Z,19.7
2022-12-06T07:12:24.337Z,17.3
2022-12-06T07:13:40.583Z,17.9
2022-12-06T07:14:56.836Z,19.2
2022-12-06T07:16:13.070Z,16.8
2022-12-06T07:17:29.295Z,17
2022-12-06T07:18:45.540Z,19.2
2022-12-06T07:20:01.777Z,16
2022-12-06T07:21:18.042Z,19.2
2022-12-06T07:22:34.257Z,19.3
2022-12-06T07:23:50.498Z,18.8
2022-12-06T07:25:05.776Z,20
2022-12-06T07:26:22.002Z,19.6
2022-12-06T07:27:38.256Z,19.9
2022-12-06T07:28:54.479Z,20.5
2022-12-06T07:30:10.719Z,19.4
2022-12-06T07:31:26.971Z,19
2022-12-06T07:32:43.000Z,18.8
2022-12-06T07:33:59.450Z,18.6
2022-12-06T07:35:15.688Z,19
2022-12-06T07:36:31.924Z,17.3
2022-12-06T07:37:48.177Z,19
2022-12-06T07:39:04.413Z,17.5
2022-12-06T07:40:20.661Z,18.2
2022-12-06T07:41:35.910Z,17.4
2022-12-06T07:42:52.148Z,18.4
2022-12-06T07:44:08.384Z,17.5
2022-12-06T07:45:24.631Z,16.4
2022-12-06T07:46:40.876Z,14.7
2022-12-06T07:47:57.115Z,16.5
2022-12-06T07:49:13.353Z,17.6
2022-12-06T07:50:29.594Z,17.3
2022-12-06T07:51:45.836Z,17.3
2022-12-06T07:53:02.071Z,15.3
2022-12-06T07:54:18.315Z,16.3
2022-12-06T07:55:34.561Z,15.4
2022-12-06T07:56:50.796Z,15
2022-12-06T07:58:06.054Z,15
2022-12-06T07:59:22.290Z,13.6
2022-12-06T08:00:38.537Z,15
2022-12-06T08:01:54.764Z,14.6
2022-12-06T08:03:11.016Z,15.6
2022-12-06T08:04:27.249Z,16.8
2022-12-06T08:05:43.487Z,15.3
2022-12-06T08:06:59.735Z,17.2
2022-12-06T08:08:15.980Z,15.6
2022-12-06T08:09:32.212Z,15.2
2022-12-06T08:10:48.455Z,13.5
2022-12-06T08:12:04.706Z,16.2
2022-12-06T08:13:20.941Z,15
2022-12-06T08:14:36.195Z,16.4
2022-12-06T08:15:52.432Z,15.2
2022-12-06T08:17:08.678Z,14.5
2022-12-06T08:18:24.912Z,14.7
2022-12-06T08:19:41.150Z,16.6
2022-12-06T08:20:57.410Z,14.4
2022-12-06T08:22:13.633Z,17.4
2022-12-06T08:23:29.894Z,16.6
2022-12-06T08:24:46.128Z,16.7
2022-12-06T08:26:02.363Z,17.9
2022-12-06T08:27:18.597Z,15.7
2022-12-06T08:28:34.833Z,15.6
2022-12-06T08:29:51.085Z,15.7
2022-12-06T08:31:06.337Z,16
2022-12-06T08:32:22.582Z,15.4
2022-12-06T08:33:38.809Z,16.7
2022-12-06T08:34:55.050Z,15.8
2022-12-06T08:36:11.305Z,17.9
2022-12-06T08:37:27.547Z,16.2
2022-12-06T08:38:43.775Z,18.1
2022-12-06T08:40:00.018Z,16.1
2022-12-06T08:41:16.254Z,18.3
2022-12-06T08:42:32.496Z,15.2
2022-12-06T08:43:48.736Z,16.7
2022-12-06T08:45:04.990Z,18.3
2022-12-06T08:46:21.230Z,15.4
2022-12-06T08:47:36.485Z,17.3
2022-12-06T08:48:52.727Z,17.7
2022-12-06T08:50:08.960Z,15.3
2022-12-06T08:51:25.196Z,16.9
2022-12-06T08:52:41.451Z,15.4
2022-12-06T08:53:57.693Z,16.4
2022-12-06T08:55:13.916Z,15.3
2022-12-06T08:56:30.166Z,17.7
2022-12-06T08:57:46.407Z,17.3
2022-12-06T08:59:02.650Z,15.7
2022-12-06T09:00:18.885Z,15.1
2022-12-06T09:01:35.118Z,14.1
2022-12-06T09:02:51.360Z,14
2022-12-06T09:04:06.633Z,13.7
2022-12-06T09:05:22.875Z,16.1
2022-12-06T09:06:39.106Z,14.6
2022-12-06T09:07:55.346Z,15.4
2022-12-06T09:09:11.589Z,15.3
2022-12-06T09:10:27.838Z,14.9
2022-12-06T09:11:44.068Z,14.5
2022-12-06T09:13:00.318Z,14.3
2022-12-06T09:14:16.542Z,15.8
2022-12-06T09:15:32.793Z,14.9
2022-12-06T09:16:49.044Z,14.9
2022-12-06T09:18:05.260Z,14.4
2022-12-06T09:19:21.517Z,14.6
2022-12-06T09:20:36.762Z,15
2022-12-06T09:21:53.012Z,14.9
2022-12-06T09:23:09.251Z,14.6
2022-12-06T09:24:25.496Z,14.4
2022-12-06T09:25:41.726Z,15.1
2022-12-06T09:26:57.982Z,12.9
2022-12-06T09:28:14.220Z,14.5
2022-12-06T09:29:30.462Z,16
2022-12-06T09:30:46.701Z,15.5
2022-12-06T09:32:02.928Z,14.9
2022-12-06T09:33:19.173Z,16.8
2022-12-06T09:34:35.418Z,15.9
2022-12-06T09:35:51.651Z,16.9
2022-12-06T09:37:06.904Z,16.3
2022-12-06T09:38:23.150Z,16.3
2022-12-06T09:39:39.394Z,14.5
2022-12-06T09:40:55.631Z,16.1
2022-12-06T09:42:11.867Z,17.6
2022-12-06T09:43:28.114Z,18.4
2022-12-06T09:44:43.379Z,17.1
2022-12-06T09:45:59.634Z,19.6
2022-12-06T09:47:15.860Z,17.8
2022-12-06T09:48:32.097Z,20.6
2022-12-06T09:49:48.346Z,20.2
2022-12-06T09:51:04.588Z,19.9
2022-12-06T09:52:20.838Z,20.6
2022-12-06T09:53:37.061Z,17.7
2022-12-06T09:54:53.292Z,19.6
2022-12-06T09:56:09.537Z,19.2
2022-12-06T09:57:25.783Z,20
2022-12-06T09:58:42.034Z,17.6
2022-12-06T09:59:58.268Z,19.1
2022-12-06T10:01:13.513Z,19.8
2022-12-06T10:02:29.754Z,18.1
2022-12-06T10:03:46.011Z,18.4
2022-12-06T10:05:02.245Z,17.5
2022-12-06T10:06:18.475Z,17.6
2022-12-06T10:07:34.732Z,17.3
2022-12-06T10:08:50.968Z,18.1
2022-12-06T10:10:07.197Z,17.4
2022-12-06T10:11:23.447Z,16.4
2022-12-06T10:12:39.688Z,18.1
2022-12-06T10:13:55.933Z,17.7
2022-12-06T10:15:12.183Z,16.9
2022-12-06T10:16:28.427Z,18.9
2022-12-06T10:17:43.668Z,18.7
2022-12-06T10:18:59.917Z,18.5
2022-12-06T10:20:16.146Z,17.1
2022-12-06T10:21:32.383Z,16.8
2022-12-06T10:22:48.617Z,16.8
2022-12-06T10:24:04.869Z,17.2
2022-12-06T10:25:21.111Z,18.1
2022-12-06T10:26:37.346Z,19.7
2022-12-06T10:27:53.583Z,19
2022-12-06T10:29:09.823Z,19
2022-12-06T10:30:26.068Z,15.5
2022-12-06T10:31:42.310Z,15
2022-12-06T10:32:58.555Z,16.9
2022-12-06T10:34:13.804Z,15.7
2022-12-06T10:35:30.044Z,15.5
2022-12-06T10:36:46.291Z,14
2022-12-06T10:38:02.550Z,14.1
2022-12-06T10:39:18.773Z,13.9
2022-12-06T10:40:35.004Z,14.1
2022-12-06T10:41:51.249Z,15.4
2022-12-06T10:43:07.497Z,14.3
2022-12-06T10:44:23.750Z,14.7
2022-12-06T10:45:39.991Z,14.6
2022-12-06T10:46:56.225Z,16
2022-12-06T10:48:12.445Z,13.9
2022-12-06T10:49:28.700Z,14.6
2022-12-06T10:50:43.955Z,13.7
2022-12-06T10:52:00.190Z,13.3
2022-12-06T10:53:16.425Z,14.1
2022-12-06T10:54:32.666Z,13.8
2022-12-06T10:55:48.929Z,14
2022-12-06T10:57:05.160Z,14.2
2022-12-06T10:58:21.397Z,15.1
2022-12-06T10:59:37.628Z,13.8
2022-12-06T11:00:53.871Z,14
2022-12-06T11:02:10.116Z,13
2022-12-06T11:03:26.358Z,11.4
2022-12-06T11:04:42.598Z,14.2
2022-12-06T11:05:58.839Z,13.6
2022-12-06T11:07:14.097Z,12.9
2022-12-06T11:08:30.333Z,14
2022-12-06T11:09:46.573Z,12.8
2022-12-06T11:11:02.819Z,12.7
2022-12-06T11:12:19.057Z,12.6
2022-12-06T11:13:35.312Z,13.6
2022-12-06T11:14:51.537Z,11.2
2022-12-06T11:16:07.783Z,14.2
2022-12-06T11:17:24.009Z,11.8
2022-12-06T11:18:40.272Z,12.4
2022-12-06T11:19:56.500Z,13.7
2022-12-06T11:21:12.738Z,11.8
2022-12-06T11:22:28.983Z,13.7
2022-12-06T11:23:45.345Z,13
2022-12-06T11:25:01.590Z,11.6
2022-12-06T11:26:17.835Z,12.6
2022-12-06T11:27:34.075Z,11.9
2022-12-06T11:28:50.298Z,12.2
2022-12-06T11:30:06.558Z,12.5
2022-12-06T11:31:22.784Z,12.7
2022-12-06T11:32:39.024Z,13.6
2022-12-06T11:33:55.265Z,12.1
2022-12-06T11:35:11.515Z,11.8
2022-12-06T11:36:27.750Z,12.9
2022-12-06T11:37:43.987Z,12.4
2022-12-06T11:39:00.236Z,13.4
2022-12-06T11:40:15.489Z,12.4
2022-12-06T11:41:31.741Z,11.9
2022-12-06T11:42:47.968Z,13.3
2022-12-06T11:44:04.226Z,13
2022-12-06T11:45:20.465Z,13.4
2022-12-06T11:46:36.684Z,11.8
2022-12-06T11:47:52.936Z,12.7
2022-12-06T11:49:09.177Z,13.3
2022-12-06T11:50:25.403Z,13.8
2022-12-06T11:51:41.649Z,12.6
2022-12-06T11:52:57.895Z,12.7
2022-12-06T11:54:14.138Z,12.6
2022-12-06T11:55:30.368Z,11.9
2022-12-06T11:56:45.623Z,14
2022-12-06T11:58:01.881Z,12.5
2022-12-06T11:59:18.114Z,13.7
2022-12-06T12:00:34.358Z,13.5
2022-12-06T12:01:50.597Z,13.4
2022-12-06T12:03:06.836Z,13.7
2022-12-06T12:04:23.078Z,12.3
2022-12-06T12:05:39.316Z,13.2
2022-12-06T12:06:55.556Z,12.1
2022-12-06T12:08:11.790Z,12.5
2022-12-06T12:09:28.038Z,12.9
2022-12-06T12:10:44.287Z,11.8
2022-12-06T12:12:00.525Z,12.8
2022-12-06T12:13:15.777Z,11.3
2022-12-06T12:14:32.023Z,11.2
2022-12-06T12:15:48.272Z,11.5
2022-12-06T12:17:04.502Z,11.5
2022-12-06T12:18:20.747Z,11.5
2022-12-06T12:19:36.988Z,12
2022-12-06T12:20:53.222Z,11.2
2022-12-06T12:22:09.463Z,12.4
2022-12-06T12:23:25.707Z,10.7
2022-12-06T12:24:41.930Z,11.6
2022-12-06T12:25:58.170Z,12.4
2022-12-06T12:27:14.439Z,11.9
2022-12-06T12:28:30.652Z,12.1
2022-12-06T12:29:45.933Z,11
2022-12-06T12:31:02.161Z,12.7
2022-12-06T12:32:18.412Z,12.3
2022-12-06T12:33:34.657Z,11.1
2022-12-06T12:34:50.900Z,13
2022-12-06T12:36:07.123Z,11.1
2022-12-06T12:37:23.366Z,11.4
2022-12-06T12:38:39.608Z,13.7
2022-12-06T12:39:55.835Z,10
2022-12-06T12:41:12.086Z,11.5
2022-12-06T12:42:28.319Z,10.1
2022-12-06T12:43:44.563Z,10.3
2022-12-06T12:45:00.816Z,10.9
2022-12-06T12:46:16.058Z,10.8
2022-12-06T12:47:32.296Z,12.2
2022-12-06T12:48:48.536Z,11.8
2022-12-06T12:50:04.786Z,11.8
2022-12-06T12:51:21.015Z,10.9
2022-12-06T12:52:37.260Z,12.2
2022-12-06T12:53:53.496Z,9.5
2022-12-06T12:55:10.211Z,11.7
2022-12-06T12:56:25.956Z,10.7
2022-12-06T12:57:42.225Z,11.2
2022-12-06T12:58:58.460Z,11.4
2022-12-06T13:00:14.699Z,11.5
2022-12-06T13:01:30.916Z,11.9
2022-12-06T13:02:46.190Z,12
2022-12-06T13:04:02.437Z,10.9
2022-12-06T13:05:18.678Z,9.9
2022-12-06T13:06:34.919Z,10.3
2022-12-06T13:07:51.167Z,10.7
2022-12-06T13:09:07.384Z,11
2022-12-06T13:10:23.646Z,10.1
2022-12-06T13:11:39.855Z,10.5
2022-12-06T13:12:56.102Z,10.2
2022-12-06T13:14:12.361Z,9.1
2022-12-06T13:15:28.596Z,12.4
2022-12-06T13:16:44.825Z,11
2022-12-06T13:18:01.064Z,10.6
2022-12-06T13:19:17.430Z,10.3
2022-12-06T13:20:33.664Z,10.4
2022-12-06T13:21:49.918Z,9.8
2022-12-06T13:23:06.149Z,10.4
2022-12-06T13:24:22.399Z,10.4
2022-12-06T13:25:38.628Z,10.5
2022-12-06T13:26:54.883Z,10.7
2022-12-06T13:28:11.105Z,10.6
2022-12-06T13:29:27.367Z,10.2
2022-12-06T13:30:43.592Z,11.8
2022-12-06T13:31:59.000Z,10.2
2022-12-06T13:33:16.084Z,9.6
2022-12-06T13:34:32.340Z,10.2
2022-12-06T13:35:47.579Z,11.5
2022-12-06T13:37:03.824Z,10.3
2022-12-06T13:38:20.000Z,9.6
2022-12-06T13:39:36.307Z,9.8
2022-12-06T13:40:52.526Z,9.4
2022-12-06T13:42:08.797Z,10.2
2022-12-06T13:43:25.009Z,8.7
2022-12-06T13:44:41.279Z,10.1
2022-12-06T13:45:57.491Z,8.2
2022-12-06T13:47:13.734Z,10.7
2022-12-06T13:48:29.970Z,9.6
2022-12-06T13:49:46.228Z,8.4
2022-12-06T13:51:02.459Z,8.4
2022-12-06T13:52:18.831Z,9.1
2022-12-06T13:53:35.059Z,9
2022-12-06T13:54:51.301Z,8.9
2022-12-06T13:56:07.554Z,9.9
2022-12-06T13:57:23.788Z,9.4
2022-12-06T13:58:40.037Z,9.8
2022-12-06T13:59:56.411Z,8.3
2022-12-06T14:01:12.625Z,8.9
2022-12-06T14:02:28.875Z,9.6
2022-12-06T14:03:45.136Z,7.3
2022-12-06T14:05:01.371Z,9
2022-12-06T14:06:17.611Z,9
2022-12-06T14:07:33.857Z,9.3
2022-12-06T14:08:50.082Z,9.1
2022-12-06T14:10:06.336Z,10.8
2022-12-06T14:11:22.569Z,9.6
2022-12-06T14:12:38.800Z,9.8
2022-12-06T14:13:55.045Z,9.8
2022-12-06T14:15:11.294Z,9.9
2022-12-06T14:16:26.529Z,9.6
2022-12-06T14:17:42.796Z,8.6
2022-12-06T14:18:59.029Z,8.9
2022-12-06T14:20:15.268Z,8.1
2022-12-06T14:21:31.507Z,9.3
2022-12-06T14:22:47.759Z,10.3
2022-12-06T14:24:03.994Z,8.7
2022-12-06T14:25:20.229Z,8.5
2022-12-06T14:26:36.471Z,9.5
2022-12-06T14:27:52.711Z,9.1
2022-12-06T14:29:08.936Z,9.7
2022-12-06T14:30:25.195Z,9.7
2022-12-06T14:31:41.429Z,9.2
2022-12-06T14:32:57.801Z,8.6
2022-12-06T14:34:14.049Z,8.2
2022-12-06T14:35:30.277Z,8.6
2022-12-06T14:36:46.500Z,7.7
2022-12-06T14:38:02.756Z,8.2
2022-12-06T14:39:18.996Z,8.8
2022-12-06T14:40:35.235Z,8.8
2022-12-06T14:41:51.478Z,8.7
2022-12-06T14:43:07.714Z,8.3
2022-12-06T14:44:23.948Z,8.9
2022-12-06T14:45:40.211Z,8.9
2022-12-06T14:46:56.439Z,9
2022-12-06T14:48:12.683Z,9.8
2022-12-06T14:49:27.937Z,7.7
2022-12-06T14:50:44.174Z,8.8
2022-12-06T14:52:00.404Z,8.5
2022-12-06T14:53:16.662Z,8.6
2022-12-06T14:54:32.895Z,8.7
2022-12-06T14:55:49.153Z,9.8
2022-12-06T14:57:05.371Z,8.6
2022-12-06T14:58:21.613Z,8.8
2022-12-06T14:59:37.874Z,8.8
2022-12-06T15:00:54.100Z,8.3
2022-12-06T15:02:10.330Z,8.8
2022-12-06T15:03:26.587Z,9.2
2022-12-06T15:04:42.810Z,8.7
2022-12-06T15:05:59.192Z,9.1
2022-12-06T15:07:15.427Z,9.3
2022-12-06T15:08:31.682Z,9.5
2022-12-06T15:09:47.908Z,8.4
2022-12-06T15:11:04.141Z,9.4
2022-12-06T15:12:20.385Z,9.3
2022-12-06T15:13:36.644Z,8.8
2022-12-06T15:14:52.860Z,9.1
2022-12-06T15:16:09.107Z,8.5
2022-12-06T15:17:25.349Z,10.6
2022-12-06T15:18:41.592Z,9.1
2022-12-06T15:19:57.822Z,8.9
2022-12-06T15:21:14.071Z,9.2
2022-12-06T15:22:29.373Z,8.2
2022-12-06T15:23:45.684Z,8.7
2022-12-06T15:25:01.968Z,7.8
2022-12-06T15:26:18.239Z,8.1
2022-12-06T15:27:34.471Z,9.1
2022-12-06T15:28:50.720Z,9.1
2022-12-06T15:30:06.984Z,7.8
2022-12-06T15:31:23.298Z,8.5
2022-12-06T15:32:39.572Z,8.9
2022-12-06T15:33:55.898Z,7.9
2022-12-06T15:35:12.183Z,7.9
2022-12-06T15:36:28.472Z,9
2022-12-06T15:37:44.771Z,7.6
2022-12-06T15:39:01.188Z,7.4
2022-12-06T15:40:17.468Z,7.3
2022-12-06T15:41:33.769Z,8.3
2022-12-06T15:42:50.069Z,7.4
2022-12-06T15:44:06.348Z,7.1
2022-12-06T15:45:22.653Z,8.5
2022-12-06T15:46:38.952Z,8
2022-12-06T15:47:55.234Z,7.7
2022-12-06T15:49:11.537Z,8
2022-12-06T15:50:27.841Z,7.9
2022-12-06T15:51:44.126Z,8.9
2022-12-06T15:53:00.437Z,7.1
2022-12-06T15:54:16.733Z,7.4
2022-12-06T15:55:32.045Z,6.9
2022-12-06T15:56:48.327Z,7.9
2022-12-06T15:58:04.630Z,7.4
2022-12-06T15:59:20.913Z,7.4
2022-12-06T16:00:37.213Z,8.2
2022-12-06T16:01:53.516Z,7.7
2022-12-06T16:03:09.814Z,6.5
2022-12-06T16:04:26.102Z,7.5
2022-12-06T16:05:42.391Z,7.1
2022-12-06T16:06:58.678Z,7.2
2022-12-06T16:08:14.973Z,8.1
2022-12-06T16:09:31.270Z,8.7
2022-12-06T16:10:47.564Z,7.1
2022-12-06T16:12:03.979Z,6.8
2022-12-06T16:13:20.268Z,7.6
2022-12-06T16:14:36.568Z,8
2022-12-06T16:15:52.861Z,6.8
2022-12-06T16:17:09.160Z,7.3
2022-12-06T16:18:25.458Z,7.4
2022-12-06T16:19:41.757Z,7.4
2022-12-06T16:20:58.041Z,6.7
2022-12-06T16:22:14.341Z,9
2022-12-06T16:23:30.631Z,7.7
2022-12-06T16:24:46.926Z,7.4
2022-12-06T16:26:03.236Z,7.8
2022-12-06T16:27:19.518Z,7.8
2022-12-06T16:28:34.832Z,7.9
2022-12-06T16:29:51.129Z,7.8
2022-12-06T16:31:07.417Z,7.9
2022-12-06T16:32:23.722Z,7.9
2022-12-06T16:33:40.023Z,6.9
2022-12-06T16:34:56.305Z,7.3
2022-12-06T16:36:12.599Z,8.5
2022-12-06T16:37:28.900Z,8
2022-12-06T16:38:45.179Z,9.4
2022-12-06T16:40:01.488Z,8.3
2022-12-06T16:41:17.764Z,8.1
2022-12-06T16:42:34.075Z,8.9
2022-12-06T16:43:50.369Z,8.1
2022-12-06T16:45:06.778Z,8.1
2022-12-06T16:46:23.072Z,8.5
2022-12-06T16:47:39.360Z,8.2
2022-12-06T16:48:55.663Z,7.6
2022-12-06T16:50:11.962Z,8.5
2022-12-06T16:51:28.244Z,8.3
2022-12-06T16:52:44.544Z,8.7
2022-12-06T16:54:00.841Z,8.7
2022-12-06T16:55:17.130Z,8.3
2022-12-06T16:56:33.427Z,8.5
2022-12-06T16:57:49.718Z,8.9
2022-12-06T16:59:06.011Z,7.7
2022-12-06T17:00:22.305Z,7.8
2022-12-06T17:01:37.623Z,8.5
2022-12-06T17:02:53.918Z,7.6
2022-12-06T17:04:10.221Z,7.6
2022-12-06T17:05:26.519Z,9
2022-12-06T17:06:42.799Z,6.8
2022-12-06T17:07:59.092Z,8.1
2022-12-06T17:09:15.397Z,7.7
2022-12-06T17:10:31.000Z,7.5
2022-12-06T17:11:47.993Z,8.2